createdAt,value
2023-12-30T00:02:59.720Z,21.98
2023-12-30T00:06:03.085Z,21.40
2023-12-30T00:09:06.163Z,21.48
2023-12-30T00:12:10.589Z,20.60
2023-12-30T00:15:13.816Z,21.37
2023-12-30T00:18:17.388Z,20.00
2023-12-30T00:21:21.166Z,19.00
2023-12-30T00:24:24.754Z,19.33
2023-12-30T00:27:27.696Z,19.15
2023-12-30T00:30:31.150Z,19.33
2023-12-30T00:33:34.346Z,18.17
2023-12-30T00:36:45.108Z,17.80
2023-12-30T00:39:49.059Z,19.35
2023-12-30T00:42:52.414Z,16.97
2023-12-30T00:45:55.388Z,17.70
2023-12-30T00:48:58.935Z,16.12
2023-12-30T00:52:02.180Z,17.27
2023-12-30T00:55:06.099Z,16.53
2023-12-30T00:58:09.150Z,17.20
2023-12-30T01:01:12.617Z,16.83
2023-12-30T01:04:15.434Z,16.45
2023-12-30T01:07:18.722Z,15.77
2023-12-30T01:10:21.605Z,16.42
2023-12-30T01:13:25.473Z,16.73
2023-12-30T01:16:28.478Z,17.37
2023-12-30T01:19:31.863Z,16.20
2023-12-30T01:22:35.017Z,15.57
2023-12-30T01:25:40.031Z,17.10
2023-12-30T01:28:42.879Z,17.20
2023-12-30T01:31:46.163Z,16.80
2023-12-30T01:34:49.102Z,16.90
2023-12-30T01:37:52.334Z,16.45
2023-12-30T01:40:56.974Z,16.62
2023-12-30T01:44:00.458Z,17.15
2023-12-30T01:47:03.383Z,16.47
2023-12-30T01:50:08.109Z,16.45
2023-12-30T01:53:12.177Z,15.80
2023-12-30T01:56:16.290Z,15.02
2023-12-30T01:59:20.287Z,14.23
2023-12-30T02:02:24.307Z,14.98
2023-12-30T02:05:27.552Z,14.30
2023-12-30T02:08:30.582Z,13.60
2023-12-30T02:11:34.773Z,15.27
2023-12-30T02:14:37.603Z,14.57
2023-12-30T02:17:41.617Z,14.52
2023-12-30T02:20:44.872Z,14.17
2023-12-30T02:23:54.963Z,14.87
2023-12-30T02:26:58.560Z,14.23
2023-12-30T02:30:01.393Z,14.27
2023-12-30T02:33:05.394Z,13.98
2023-12-30T02:36:08.742Z,12.30
2023-12-30T02:39:12.547Z,12.85
2023-12-30T02:42:15.439Z,13.05
2023-12-30T02:45:18.960Z,13.65
2023-12-30T02:48:21.984Z,13.18
2023-12-30T02:51:25.716Z,13.45
2023-12-30T02:54:29.822Z,12.98
2023-12-30T02:57:33.452Z,13.45
2023-12-30T03:00:50.781Z,13.73
2023-12-30T03:03:55.789Z,12.57
2023-12-30T03:06:58.734Z,14.02
2023-12-30T03:10:02.256Z,14.40
2023-12-30T03:13:05.649Z,14.15
2023-12-30T03:16:09.397Z,13.62
2023-12-30T03:19:12.671Z,12.70
2023-12-30T03:22:16.116Z,13.35
2023-12-30T03:25:19.528Z,13.60
2023-12-30T03:28:22.922Z,13.35
2023-12-30T03:31:30.768Z,13.82
2023-12-30T03:34:34.199Z,13.13
2023-12-30T03:37:37.553Z,14.05
2023-12-30T03:40:40.903Z,14.00
2023-12-30T03:43:44.379Z,13.50
2023-12-30T03:46:48.106Z,12.73
2023-12-30T03:49:50.916Z,13.07
2023-12-30T03:52:54.799Z,13.82
2023-12-30T03:55:58.075Z,15.15
2023-12-30T03:59:01.371Z,16.70
2023-12-30T04:02:04.525Z,15.15
2023-12-30T04:05:08.312Z,14.77
2023-12-30T04:08:11.407Z,14.80
2023-12-30T04:11:15.342Z,14.85
2023-12-30T04:14:19.029Z,17.25
2023-12-30T04:17:22.343Z,16.95
2023-12-30T04:20:25.297Z,14.60
2023-12-30T04:23:29.218Z,17.70
2023-12-30T04:26:32.646Z,19.23
2023-12-30T04:29:35.904Z,20.80
2023-12-30T04:32:38.946Z,20.53
2023-12-30T04:35:43.102Z,15.35
2023-12-30T04:38:47.885Z,18.05
2023-12-30T04:41:51.322Z,18.80
2023-12-30T04:44:55.538Z,9.60
2023-12-30T04:47:58.675Z,18.55
2023-12-30T04:51:01.538Z,16.25
2023-12-30T04:54:05.269Z,17.60
2023-12-30T04:57:08.707Z,14.63
2023-12-30T05:00:12.502Z,15.88
2023-12-30T05:03:16.982Z,12.60
2023-12-30T05:06:24.727Z,15.63
2023-12-30T05:09:27.583Z,13.52
2023-12-30T05:12:30.814Z,11.70
2023-12-30T05:15:33.969Z,16.23
2023-12-30T05:18:37.871Z,16.55
2023-12-30T05:21:42.783Z,17.98
2023-12-30T05:24:46.429Z,17.45
2023-12-30T05:27:49.521Z,18.90
2023-12-30T05:30:52.769Z,21.60
2023-12-30T05:33:56.180Z,29.77
2023-12-30T05:36:59.615Z,20.05
2023-12-30T05:40:03.085Z,28.83
2023-12-30T05:43:07.581Z,26.63
2023-12-30T05:46:17.540Z,26.23
2023-12-30T05:49:20.919Z,23.73
2023-12-30T05:52:24.042Z,25.00
2023-12-30T05:55:27.690Z,14.57
2023-12-30T05:58:30.651Z,37.08
2023-12-30T06:01:34.015Z,33.55
2023-12-30T06:04:41.732Z,29.48
2023-12-30T06:07:44.843Z,28.10
2023-12-30T06:10:53.012Z,30.98
2023-12-30T06:13:56.422Z,28.87
2023-12-30T06:16:59.631Z,26.42
2023-12-30T06:20:02.771Z,25.27
2023-12-30T06:23:06.139Z,21.75
2023-12-30T06:26:09.212Z,19.90
2023-12-30T06:29:12.878Z,23.67
2023-12-30T06:32:15.809Z,26.83
2023-12-30T06:35:19.307Z,25.50
2023-12-30T06:38:22.530Z,27.60
2023-12-30T06:41:25.746Z,27.87
2023-12-30T06:44:28.864Z,26.23
2023-12-30T06:47:32.098Z,29.50
2023-12-30T06:50:35.043Z,36.97
2023-12-30T06:53:39.130Z,38.25
2023-12-30T06:56:42.358Z,39.00
2023-12-30T06:59:45.385Z,39.75
2023-12-30T07:02:49.102Z,48.05
2023-12-30T07:05:52.406Z,52.70
2023-12-30T07:08:55.274Z,47.30
2023-12-30T07:11:58.522Z,44.53
2023-12-30T07:15:01.627Z,47.28
2023-12-30T07:18:05.360Z,43.57
2023-12-30T07:21:08.360Z,45.60
2023-12-30T07:24:11.888Z,76.60
2023-12-30T07:27:16.088Z,46.30
2023-12-30T07:30:19.595Z,40.05
2023-12-30T07:33:23.706Z,47.58
2023-12-30T07:36:28.482Z,70.97
2023-12-30T07:39:34.297Z,47.50
2023-12-30T07:42:37.821Z,32.08
2023-12-30T07:45:41.057Z,44.38
2023-12-30T07:48:45.649Z,43.60
2023-12-30T07:51:48.823Z,40.97
2023-12-30T07:54:51.916Z,49.40
2023-12-30T07:57:54.916Z,43.00
2023-12-30T08:00:58.243Z,43.55
2023-12-30T08:04:02.203Z,37.85
2023-12-30T08:07:05.348Z,34.58
2023-12-30T08:10:08.967Z,37.35
2023-12-30T08:13:30.874Z,31.90
2023-12-30T08:16:38.145Z,38.28
2023-12-30T08:19:41.467Z,27.90
2023-12-30T08:22:45.523Z,25.05
2023-12-30T08:25:48.625Z,24.35
2023-12-30T08:28:53.153Z,27.17
2023-12-30T08:31:56.151Z,27.30
2023-12-30T08:34:59.816Z,24.07
2023-12-30T08:38:02.966Z,22.08
2023-12-30T08:41:11.372Z,22.15
2023-12-30T08:44:14.297Z,22.27
2023-12-30T08:47:18.166Z,23.47
2023-12-30T08:50:21.039Z,23.35
2023-12-30T08:53:26.522Z,22.00
2023-12-30T08:56:35.136Z,22.65
2023-12-30T08:59:39.793Z,21.55
2023-12-30T09:02:48.588Z,22.70
2023-12-30T09:05:51.919Z,17.87
2023-12-30T09:08:54.878Z,22.85
2023-12-30T09:11:58.150Z,21.70
2023-12-30T09:15:00.879Z,21.90
2023-12-30T09:18:04.663Z,26.23
2023-12-30T09:21:07.566Z,17.40
2023-12-30T09:24:11.100Z,19.00
2023-12-30T09:27:13.921Z,14.73
2023-12-30T09:30:17.308Z,16.30
2023-12-30T09:33:20.717Z,13.30
2023-12-30T09:36:24.329Z,11.12
2023-12-30T09:39:28.180Z,13.65
2023-12-30T09:42:31.379Z,15.57
2023-12-30T09:45:35.944Z,11.88
2023-12-30T09:48:41.119Z,12.27
2023-12-30T09:51:44.300Z,15.52
2023-12-30T09:54:49.514Z,11.52
2023-12-30T09:57:52.759Z,16.90
2023-12-30T10:00:56.004Z,12.25
2023-12-30T10:03:59.667Z,12.53
2023-12-30T10:07:04.429Z,11.00
2023-12-30T10:10:09.515Z,12.68
2023-12-30T10:13:14.237Z,18.50
2023-12-30T10:16:18.593Z,12.40
2023-12-30T10:19:21.616Z,13.50
2023-12-30T10:22:25.141Z,12.57
2023-12-30T10:25:28.003Z,12.65
2023-12-30T10:28:31.909Z,11.05
2023-12-30T10:31:35.143Z,13.45
2023-12-30T10:34:42.485Z,14.80
2023-12-30T10:37:48.774Z,14.02
2023-12-30T10:40:55.209Z,13.05
2023-12-30T10:43:58.664Z,13.68
2023-12-30T10:47:04.271Z,14.60
2023-12-30T10:50:11.262Z,14.87
2023-12-30T10:53:24.664Z,13.73
2023-12-30T10:56:31.558Z,12.73
2023-12-30T10:59:38.746Z,11.95
2023-12-30T11:02:42.593Z,12.57
2023-12-30T11:05:58.342Z,11.33
2023-12-30T11:09:08.298Z,12.30
2023-12-30T11:12:11.727Z,10.75
2023-12-30T11:15:31.977Z,12.90
2023-12-30T11:18:51.216Z,13.55
2023-12-30T11:22:02.830Z,16.07
2023-12-30T11:25:06.528Z,13.45
2023-12-30T11:28:19.610Z,10.65
2023-12-30T11:31:35.308Z,12.20
2023-12-30T11:34:38.273Z,13.27
2023-12-30T11:37:45.600Z,12.70
2023-12-30T11:40:55.886Z,12.60
2023-12-30T11:44:01.623Z,13.00
2023-12-30T11:47:04.939Z,12.80
2023-12-30T11:50:11.400Z,15.60
2023-12-30T11:53:17.128Z,14.40
2023-12-30T11:56:22.959Z,13.68
2023-12-30T11:59:26.501Z,16.85
2023-12-30T12:02:29.862Z,15.65
2023-12-30T12:05:34.985Z,16.20
2023-12-30T12:08:39.648Z,13.63
2023-12-30T12:11:44.096Z,13.57
2023-12-30T12:14:54.213Z,12.88
2023-12-30T12:17:58.074Z,15.35
2023-12-30T12:21:04.658Z,12.73
2023-12-30T12:24:07.881Z,13.30
2023-12-30T12:27:11.360Z,14.75
2023-12-30T12:30:14.719Z,14.70
2023-12-30T12:33:22.504Z,13.73
2023-12-30T12:36:27.019Z,13.00
2023-12-30T12:39:31.631Z,14.37
2023-12-30T12:42:35.191Z,13.23
2023-12-30T12:45:38.239Z,11.65
2023-12-30T12:48:41.590Z,10.30
2023-12-30T12:51:45.694Z,7.97
2023-12-30T12:54:49.113Z,5.47
2023-12-30T12:57:52.261Z,4.80
2023-12-30T13:00:55.596Z,6.40
2023-12-30T13:03:59.885Z,7.12
2023-12-30T13:07:03.472Z,6.12
2023-12-30T13:10:34.087Z,5.87
2023-12-30T13:13:37.799Z,4.30
2023-12-30T13:16:43.153Z,5.50
2023-12-30T13:19:47.521Z,4.90
2023-12-30T13:22:56.841Z,4.68
2023-12-30T13:26:03.290Z,5.33
2023-12-30T13:29:07.775Z,5.18
2023-12-30T13:32:12.498Z,5.85
2023-12-30T13:35:15.394Z,5.37
2023-12-30T13:38:24.634Z,5.37
2023-12-30T13:41:27.513Z,4.87
2023-12-30T13:44:36.910Z,4.80
2023-12-30T13:47:45.671Z,5.60
2023-12-30T13:50:56.081Z,5.22
2023-12-30T13:54:01.060Z,5.18
2023-12-30T13:57:14.296Z,5.30
2023-12-30T14:00:19.551Z,5.60
2023-12-30T14:03:24.566Z,6.05
2023-12-30T14:06:36.327Z,6.87
2023-12-30T14:09:51.560Z,13.35
2023-12-30T14:13:02.043Z,9.57
2023-12-30T14:16:07.351Z,13.95
2023-12-30T14:19:10.763Z,14.95
2023-12-30T14:22:17.593Z,7.15
2023-12-30T14:25:20.430Z,5.45
2023-12-30T14:28:23.932Z,5.13
2023-12-30T14:31:26.961Z,4.97
2023-12-30T14:34:30.808Z,4.62
2023-12-30T14:37:33.983Z,5.40
2023-12-30T14:40:37.593Z,5.43
2023-12-30T14:43:40.529Z,5.30
2023-12-30T14:46:44.065Z,5.30
2023-12-30T14:49:47.034Z,5.30
2023-12-30T14:52:50.284Z,5.47
2023-12-30T14:55:53.139Z,4.93
2023-12-30T14:58:56.569Z,5.47
2023-12-30T15:01:59.675Z,6.15
2023-12-30T15:05:03.193Z,10.45
2023-12-30T15:08:06.462Z,10.15
2023-12-30T15:11:10.432Z,12.60
2023-12-30T15:14:13.396Z,16.63
2023-12-30T15:17:16.751Z,15.73
2023-12-30T15:20:20.738Z,15.48
2023-12-30T15:23:24.337Z,14.75
2023-12-30T15:26:27.378Z,15.45
2023-12-30T15:29:30.457Z,14.93
2023-12-30T15:32:33.795Z,15.85
2023-12-30T15:35:37.452Z,16.30
2023-12-30T15:38:40.587Z,15.77
2023-12-30T15:41:45.900Z,15.25
2023-12-30T15:44:49.566Z,18.23
2023-12-30T15:47:53.021Z,18.95
2023-12-30T15:50:56.111Z,21.52
2023-12-30T15:53:59.957Z,27.92
2023-12-30T15:57:03.201Z,29.80
2023-12-30T16:00:09.915Z,23.33
2023-12-30T16:03:15.272Z,21.37
2023-12-30T16:06:19.293Z,22.87
2023-12-30T16:09:22.930Z,24.65
2023-12-30T16:12:26.235Z,27.95
2023-12-30T16:15:31.126Z,32.10
2023-12-30T16:18:34.207Z,22.55
2023-12-30T16:21:38.329Z,47.62
2023-12-30T16:24:43.120Z,29.42
2023-12-30T16:27:49.141Z,26.15
2023-12-30T16:30:56.423Z,22.20
2023-12-30T16:34:01.387Z,21.58
2023-12-30T16:37:06.749Z,22.25
2023-12-30T16:40:12.407Z,21.62
2023-12-30T16:43:16.294Z,23.23
2023-12-30T16:46:20.393Z,21.37
2023-12-30T16:49:23.366Z,23.12
2023-12-30T16:52:27.125Z,24.05
2023-12-30T16:55:30.376Z,24.00
2023-12-30T16:58:34.575Z,35.55
2023-12-30T17:01:37.982Z,25.20
2023-12-30T17:04:41.879Z,22.00
2023-12-30T17:07:45.484Z,19.90
2023-12-30T17:10:49.635Z,20.42
2023-12-30T17:13:54.246Z,20.65
2023-12-30T17:16:57.926Z,24.30
2023-12-30T17:20:00.769Z,22.48
2023-12-30T17:23:06.989Z,20.40
2023-12-30T17:26:10.318Z,20.08
2023-12-30T17:29:13.936Z,21.48
2023-12-30T17:32:18.751Z,19.83
2023-12-30T17:35:26.331Z,20.83
2023-12-30T17:38:29.070Z,24.80
2023-12-30T17:41:32.630Z,25.25
2023-12-30T17:44:36.456Z,25.53
2023-12-30T17:47:40.595Z,27.92
2023-12-30T17:50:46.714Z,29.92
2023-12-30T17:53:51.669Z,25.10
2023-12-30T17:56:55.177Z,20.88
2023-12-30T17:59:58.981Z,22.57
2023-12-30T18:03:02.718Z,25.50
2023-12-30T18:06:07.941Z,24.70
2023-12-30T18:09:12.778Z,26.62
2023-12-30T18:12:16.644Z,25.12
2023-12-30T18:15:20.343Z,27.25
2023-12-30T18:18:24.326Z,37.88
2023-12-30T18:21:29.056Z,31.37
2023-12-30T18:24:33.341Z,30.98
2023-12-30T18:27:36.760Z,27.73
2023-12-30T18:30:43.062Z,31.05
2023-12-30T18:33:47.363Z,30.17
2023-12-30T18:36:53.636Z,30.30
2023-12-30T18:39:57.092Z,29.65
2023-12-30T18:43:00.968Z,26.93
2023-12-30T18:46:04.429Z,31.80
2023-12-30T18:49:08.951Z,31.73
2023-12-30T18:52:16.317Z,30.27
2023-12-30T18:55:20.684Z,32.43
2023-12-30T18:58:25.096Z,36.70
2023-12-30T19:01:29.179Z,36.38
2023-12-30T19:04:36.020Z,32.22
2023-12-30T19:07:41.998Z,34.83
2023-12-30T19:10:45.953Z,31.27
2023-12-30T19:13:50.106Z,30.30
2023-12-30T19:16:53.432Z,29.23
2023-12-30T19:20:01.275Z,31.60
2023-12-30T19:23:05.233Z,30.73
2023-12-30T19:26:09.981Z,26.37
2023-12-30T19:29:13.513Z,24.52
2023-12-30T19:32:17.418Z,25.40
2023-12-30T19:35:20.664Z,23.25
2023-12-30T19:38:24.676Z,23.67
2023-12-30T19:41:27.517Z,23.50
2023-12-30T19:44:32.349Z,25.75
2023-12-30T19:47:35.811Z,25.62
2023-12-30T19:50:39.752Z,27.07
2023-12-30T19:53:43.788Z,36.67
2023-12-30T19:56:47.743Z,33.05
2023-12-30T19:59:50.915Z,26.42
2023-12-30T20:02:54.798Z,26.50
2023-12-30T20:05:58.957Z,28.38
2023-12-30T20:09:03.046Z,27.23
2023-12-30T20:12:07.298Z,31.83
2023-12-30T20:15:10.614Z,25.88
2023-12-30T20:18:15.460Z,27.57
2023-12-30T20:21:19.235Z,33.70
2023-12-30T20:24:23.986Z,36.22
2023-12-30T20:27:30.143Z,34.90
2023-12-30T20:30:35.409Z,34.90
2023-12-30T20:33:39.366Z,31.98
2023-12-30T20:36:45.299Z,29.98
2023-12-30T20:39:50.213Z,28.90
2023-12-30T20:42:55.744Z,29.10
2023-12-30T20:46:01.400Z,30.83
2023-12-30T20:49:07.862Z,30.05
2023-12-30T20:52:12.716Z,28.70
2023-12-30T20:55:18.425Z,29.73
2023-12-30T20:58:22.448Z,31.33
2023-12-30T21:01:28.990Z,32.30
2023-12-30T21:04:38.792Z,33.33
2023-12-30T21:07:41.783Z,34.47
2023-12-30T21:10:44.695Z,31.10
2023-12-30T21:13:48.064Z,27.27
2023-12-30T21:16:51.668Z,29.02
2023-12-30T21:19:55.361Z,28.02
2023-12-30T21:22:58.328Z,29.40
2023-12-30T21:26:02.292Z,29.58
2023-12-30T21:29:07.298Z,29.70
2023-12-30T21:32:11.083Z,27.30
2023-12-30T21:35:14.359Z,25.37
2023-12-30T21:38:17.750Z,26.55
2023-12-30T21:41:24.641Z,26.00
2023-12-30T21:44:27.951Z,25.12
2023-12-30T21:47:32.167Z,26.10
2023-12-30T21:50:35.546Z,25.55
2023-12-30T21:53:38.478Z,21.37
2023-12-30T21:56:42.991Z,20.65
2023-12-30T21:59:46.060Z,26.62
2023-12-30T22:02:49.333Z,24.98
2023-12-30T22:05:52.632Z,24.87
2023-12-30T22:08:55.552Z,23.97
2023-12-30T22:11:58.729Z,22.35
2023-12-30T22:15:01.407Z,16.17
2023-12-30T22:18:08.187Z,14.98
2023-12-30T22:21:11.191Z,17.63
2023-12-30T22:24:14.490Z,13.75
2023-12-30T22:27:17.438Z,15.55
2023-12-30T22:30:21.161Z,15.95
2023-12-30T22:33:24.229Z,15.50
2023-12-30T22:36:29.434Z,16.40
2023-12-30T22:39:32.611Z,16.20
2023-12-30T22:42:36.614Z,15.00
2023-12-30T22:45:42.220Z,15.50
2023-12-30T22:48:45.558Z,14.57
2023-12-30T22:51:50.018Z,14.35
2023-12-30T22:54:53.390Z,14.60
2023-12-30T22:57:56.173Z,15.45
2023-12-30T23:00:59.612Z,15.73
2023-12-30T23:04:03.166Z,16.12
2023-12-30T23:07:06.421Z,15.13
2023-12-30T23:10:12.787Z,14.02
2023-12-30T23:13:20.297Z,14.20
2023-12-30T23:16:23.405Z,12.13
2023-12-30T23:19:26.752Z,12.32
2023-12-30T23:22:29.648Z,12.02
2023-12-30T23:25:33.917Z,13.20
2023-12-30T23:28:36.889Z,11.67
2023-12-30T23:31:42.721Z,12.98
2023-12-30T23:34:49.663Z,13.13
2023-12-30T23:37:54.176Z,13.60
2023-12-30T23:40:56.957Z,12.32
2023-12-30T23:44:00.575Z,12.88
2023-12-30T23:47:03.250Z,11.82
2023-12-30T23:50:07.011Z,12.80
2023-12-30T23:53:09.889Z,12.60
2023-12-30T23:56:13.167Z,12.27
2023-12-30T23:59:18.440Z,12.23
